PAMC

Mc Grath Airport

Mcgrath, Alaska, USA
PAMC 260521Z 2606/2706 18014G19KT P6SM VCSH BKN045 OVC050 FM260900 17004KT P6SM BKN100 FM261800 18008G15KT P6SM VCSH BKN050
Issued Valid From Valid To
Apr-26 @ 05:21 UTC
(42 minutes ago)
Apr-26 @ 06:00 UTC
(3 minutes ago)
Apr-27 @ 06:00 UTC
(in 24 hours)
Apr-26 @ 06:00 to Apr-26 @ 09:00
PAMC 260521Z 2606/2706 18014G19KT P6SM VCSH BKN045 OVC050
Wind Visibility Clouds
180° at 14 knots
 Gusting to 19 knots
Greater than 6 miles
  • Broken at 4,500' AGL
  • Overcast at 5,000' AGL
From Apr-26 @ 09:00 to Apr-26 @ 18:00
FM260900 17004KT P6SM BKN100
Wind Visibility Clouds
170° at 4 knots Greater than 6 miles
  • Broken at 10,000' AGL
From Apr-26 @ 18:00 to Apr-27 @ 06:00
FM261800 18008G15KT P6SM VCSH BKN050
Wind Visibility Clouds
180° at 8 knots
 Gusting to 15 knots
Greater than 6 miles
  • Broken at 5,000' AGL
PAMC 260521Z 2606/2706 18014G19KT P6SM VCSH BKN045 OVC050 FM260900 17004KT P6SM BKN100 FM261800 18008G15KT P6SM VCSH BKN050
Issued Apr-26 @ 05:21 UTC
(42 minutes ago)
Valid From Apr-26 @ 06:00 UTC
(3 minutes ago)
Valid To Apr-27 @ 06:00 UTC
(in 24 hours)
Apr-26 @ 06:00 - Apr-26 @ 09:00
Wind Visibility
180° at 14 knots
 Gusting to 19 knots
Greater than 6 miles
Clouds
  • Broken at 4,500' AGL
  • Overcast at 5,000' AGL
From Apr-26 @ 09:00 - Apr-26 @ 18:00
Wind Visibility
170° at 4 knots Greater than 6 miles
Clouds
  • Broken at 10,000' AGL
From Apr-26 @ 18:00 - Apr-27 @ 06:00
Wind Visibility
180° at 8 knots
 Gusting to 15 knots
Greater than 6 miles
Clouds
  • Broken at 5,000' AGL